sensor_id;sensor_type;location;lat;lon;timestamp;temperature;humidity
10441;DHT22;5268;49.346;9.522;2023-02-28T04:07:01;-0.90;99.90
10441;DHT22;5268;49.346;9.522;2023-02-28T04:12:03;-0.90;99.90
10441;DHT22;5268;49.346;9.522;2023-02-28T04:17:06;-1.00;99.90
10441;DHT22;5268;49.346;9.522;2023-02-28T04:22:10;-0.90;99.90
10441;DHT22;5268;49.346;9.522;2023-02-28T04:27:12;-1.00;99.90
10441;DHT22;5268;49.346;9.522;2023-02-28T04:32:16;-1.00;99.90
10441;DHT22;5268;49.346;9.522;2023-02-28T04:37:19;-0.90;99.90
10441;DHT22;5268;49.346;9.522;2023-02-28T04:42:21;-0.90;99.90
10441;DHT22;5268;49.346;9.522;2023-02-28T04:47:23;-0.90;99.90
10441;DHT22;5268;49.346;9.522;2023-02-28T04:52:27;-1.00;99.90
10441;DHT22;5268;49.346;9.522;2023-02-28T04:57:29;-1.00;99.90
10441;DHT22;5268;49.346;9.522;2023-02-28T05:02:34;-1.00;99.90
10441;DHT22;5268;49.346;9.522;2023-02-28T05:07:37;-1.00;99.90
10441;DHT22;5268;49.346;9.522;2023-02-28T05:12:39;-1.10;99.90
10441;DHT22;5268;49.346;9.522;2023-02-28T05:17:41;-1.10;99.90
10441;DHT22;5268;49.346;9.522;2023-02-28T05:22:45;-1.10;99.90
10441;DHT22;5268;49.346;9.522;2023-02-28T05:27:47;-1.10;99.90
10441;DHT22;5268;49.346;9.522;2023-02-28T05:32:51;-1.10;99.90
10441;DHT22;5268;49.346;9.522;2023-02-28T05:37:54;-1.20;99.90
10441;DHT22;5268;49.346;9.522;2023-02-28T05:42:56;-1.20;99.90
10441;DHT22;5268;49.346;9.522;2023-02-28T05:47:58;-1.20;99.90
10441;DHT22;5268;49.346;9.522;2023-02-28T05:53:01;-1.20;99.90
10441;DHT22;5268;49.346;9.522;2023-02-28T05:58:03;-1.30;99.90
10441;DHT22;5268;49.346;9.522;2023-02-28T06:03:05;-1.30;99.90
10441;DHT22;5268;49.346;9.522;2023-02-28T06:08:09;-1.20;99.90
10441;DHT22;5268;49.346;9.522;2023-02-28T06:13:11;-1.20;99.90
10441;DHT22;5268;49.346;9.522;2023-02-28T06:18:13;-1.30;99.90
10441;DHT22;5268;49.346;9.522;2023-02-28T06:23:16;-1.40;99.90
10441;DHT22;5268;49.346;9.522;2023-02-28T06:28:18;-1.40;99.90
10441;DHT22;5268;49.346;9.522;2023-02-28T06:33:20;-1.40;99.90
10441;DHT22;5268;49.346;9.522;2023-02-28T06:38:24;-1.40;99.90
10441;DHT22;5268;49.346;9.522;2023-02-28T06:43:28;-1.40;99.90
10441;DHT22;5268;49.346;9.522;2023-02-28T06:48:30;-1.40;99.90
10441;DHT22;5268;49.346;9.522;2023-02-28T06:53:34;-1.40;99.90
10441;DHT22;5268;49.346;9.522;2023-02-28T06:58:36;-1.30;99.90
10441;DHT22;5268;49.346;9.522;2023-02-28T07:03:38;-1.10;99.90
10441;DHT22;5268;49.346;9.522;2023-02-28T07:08:41;-0.70;99.90
10441;DHT22;5268;49.346;9.522;2023-02-28T07:13:43;-0.10;99.90
10441;DHT22;5268;49.346;9.522;2023-02-28T07:18:47;0.50;99.90
10441;DHT22;5268;49.346;9.522;2023-02-28T07:23:50;0.80;99.90
10441;DHT22;5268;49.346;9.522;2023-02-28T07:28:53;1.30;99.90
10441;DHT22;5268;49.346;9.522;2023-02-28T07:33:55;1.60;99.90
10441;DHT22;5268;49.346;9.522;2023-02-28T07:38:58;2.00;99.90
10441;DHT22;5268;49.346;9.522;2023-02-28T07:44:00;2.60;99.90
10441;DHT22;5268;49.346;9.522;2023-02-28T07:49:04;3.10;99.90
10441;DHT22;5268;49.346;9.522;2023-02-28T07:54:07;4.00;99.90
10441;DHT22;5268;49.346;9.522;2023-02-28T07:59:09;4.50;99.90
10441;DHT22;5268;49.346;9.522;2023-02-28T08:04:11;4.70;99.90
10441;DHT22;5268;49.346;9.522;2023-02-28T08:09:15;4.80;99.90
10441;DHT22;5268;49.346;9.522;2023-02-28T08:14:17;4.70;99.90
10441;DHT22;5268;49.346;9.522;2023-02-28T08:19:19;5.40;99.90
10441;DHT22;5268;49.346;9.522;2023-02-28T08:24:22;5.70;99.90
10441;DHT22;5268;49.346;9.522;2023-02-28T08:29:25;5.30;99.90
10441;DHT22;5268;49.346;9.522;2023-02-28T08:34:26;4.50;99.90
10441;DHT22;5268;49.346;9.522;2023-02-28T08:39:30;4.10;99.90
10441;DHT22;5268;49.346;9.522;2023-02-28T08:44:32;3.90;99.90
10441;DHT22;5268;49.346;9.522;2023-02-28T08:49:34;3.80;99.90
10441;DHT22;5268;49.346;9.522;2023-02-28T08:54:37;4.00;99.90
10441;DHT22;5268;49.346;9.522;2023-02-28T08:59:39;3.50;99.90
10441;DHT22;5268;49.346;9.522;2023-02-28T09:04:41;3.40;99.90
10441;DHT22;5268;49.346;9.522;2023-02-28T09:09:47;3.80;99.90
10441;DHT22;5268;49.346;9.522;2023-02-28T09:14:58;4.00;99.90
10441;DHT22;5268;49.346;9.522;2023-02-28T09:20:00;3.60;99.90
10441;DHT22;5268;49.346;9.522;2023-02-28T09:25:04;3.50;99.90
10441;DHT22;5268;49.346;9.522;2023-02-28T09:30:07;3.50;99.90
10441;DHT22;5268;49.346;9.522;2023-02-28T09:35:09;3.80;99.90
10441;DHT22;5268;49.346;9.522;2023-02-28T09:40:16;4.20;99.90
10441;DHT22;5268;49.346;9.522;2023-02-28T09:45:24;4.30;99.90
10441;DHT22;5268;49.346;9.522;2023-02-28T09:50:31;4.40;99.90
10441;DHT22;5268;49.346;9.522;2023-02-28T09:55:40;4.50;99.90
10441;DHT22;5268;49.346;9.522;2023-02-28T10:00:44;4.20;99.90
10441;DHT22;5268;49.346;9.522;2023-02-28T10:05:51;4.50;99.90
10441;DHT22;5268;49.346;9.522;2023-02-28T10:10:58;4.70;99.90
10441;DHT22;5268;49.346;9.522;2023-02-28T10:16:05;4.90;99.90
10441;DHT22;5268;49.346;9.522;2023-02-28T10:21:17;4.90;99.90
10441;DHT22;5268;49.346;9.522;2023-02-28T10:26:23;4.20;99.90
10441;DHT22;5268;49.346;9.522;2023-02-28T10:31:28;4.30;99.90
10441;DHT22;5268;49.346;9.522;2023-02-28T10:36:30;4.60;99.90
10441;DHT22;5268;49.346;9.522;2023-02-28T10:41:33;5.00;99.90
10441;DHT22;5268;49.346;9.522;2023-02-28T10:46:36;4.70;99.90
10441;DHT22;5268;49.346;9.522;2023-02-28T10:51:41;4.80;99.90
10441;DHT22;5268;49.346;9.522;2023-02-28T10:56:45;5.20;99.90
10441;DHT22;5268;49.346;9.522;2023-02-28T11:01:47;5.00;99.90
10441;DHT22;5268;49.346;9.522;2023-02-28T11:06:58;4.50;99.90
10441;DHT22;5268;49.346;9.522;2023-02-28T11:12:02;4.80;99.90
10441;DHT22;5268;49.346;9.522;2023-02-28T11:17:14;5.00;99.90
10441;DHT22;5268;49.346;9.522;2023-02-28T11:22:19;4.90;99.90
10441;DHT22;5268;49.346;9.522;2023-02-28T11:27:42;4.80;99.90
10441;DHT22;5268;49.346;9.522;2023-02-28T11:32:48;4.80;99.90
10441;DHT22;5268;49.346;9.522;2023-02-28T11:37:50;4.80;99.90
10441;DHT22;5268;49.346;9.522;2023-02-28T11:43:04;4.70;99.90
10441;DHT22;5268;49.346;9.522;2023-02-28T11:48:14;4.60;99.90
10441;DHT22;5268;49.346;9.522;2023-02-28T11:53:24;4.50;99.90
10441;DHT22;5268;49.346;9.522;2023-02-28T11:58:43;4.60;99.90
10441;DHT22;5268;49.346;9.522;2023-02-28T12:04:03;4.70;99.90
10441;DHT22;5268;49.346;9.522;2023-02-28T12:09:28;4.50;99.90
10441;DHT22;5268;49.346;9.522;2023-02-28T12:14:50;4.60;99.90
10441;DHT22;5268;49.346;9.522;2023-02-28T12:20:02;4.50;99.90
10441;DHT22;5268;49.346;9.522;2023-02-28T12:25:32;4.70;99.90
10441;DHT22;5268;49.346;9.522;2023-02-28T12:30:44;5.20;99.90
10441;DHT22;5268;49.346;9.522;2023-02-28T12:35:51;5.40;99.90
10441;DHT22;5268;49.346;9.522;2023-02-28T12:40:59;5.40;99.90
10441;DHT22;5268;49.346;9.522;2023-02-28T12:46:09;5.10;99.90
10441;DHT22;5268;49.346;9.522;2023-02-28T12:51:12;5.10;99.90
10441;DHT22;5268;49.346;9.522;2023-02-28T12:56:18;5.30;99.90
10441;DHT22;5268;49.346;9.522;2023-02-28T13:01:50;5.20;99.90
10441;DHT22;5268;49.346;9.522;2023-02-28T13:12:29;5.70;99.90
10441;DHT22;5268;49.346;9.522;2023-02-28T13:17:33;5.90;99.90
10441;DHT22;5268;49.346;9.522;2023-02-28T13:22:46;5.90;99.90
10441;DHT22;5268;49.346;9.522;2023-02-28T13:27:48;5.90;99.90
10441;DHT22;5268;49.346;9.522;2023-02-28T13:33:27;6.00;99.90
10441;DHT22;5268;49.346;9.522;2023-02-28T13:38:35;6.00;99.90
10441;DHT22;5268;49.346;9.522;2023-02-28T13:44:00;6.00;99.90
10441;DHT22;5268;49.346;9.522;2023-02-28T13:49:25;6.10;99.90
10441;DHT22;5268;49.346;9.522;2023-02-28T13:54:40;6.20;99.90
10441;DHT22;5268;49.346;9.522;2023-02-28T13:59:51;6.10;99.90
10441;DHT22;5268;49.346;9.522;2023-02-28T14:05:04;6.20;99.90
10441;DHT22;5268;49.346;9.522;2023-02-28T14:10:15;6.10;99.90
10441;DHT22;5268;49.346;9.522;2023-02-28T14:20:47;6.10;99.90
10441;DHT22;5268;49.346;9.522;2023-02-28T14:25:59;5.90;99.90
10441;DHT22;5268;49.346;9.522;2023-02-28T14:31:09;6.20;99.90
10441;DHT22;5268;49.346;9.522;2023-02-28T14:36:18;6.40;99.90
10441;DHT22;5268;49.346;9.522;2023-02-28T14:41:26;6.50;99.90
10441;DHT22;5268;49.346;9.522;2023-02-28T14:46:37;6.30;99.90
10441;DHT22;5268;49.346;9.522;2023-02-28T14:51:41;6.20;99.90
10441;DHT22;5268;49.346;9.522;2023-02-28T14:56:43;6.20;99.90
10441;DHT22;5268;49.346;9.522;2023-02-28T15:01:50;6.20;99.90
10441;DHT22;5268;49.346;9.522;2023-02-28T15:07:08;6.00;99.90
10441;DHT22;5268;49.346;9.522;2023-02-28T15:12:13;6.10;99.90
10441;DHT22;5268;49.346;9.522;2023-02-28T15:17:22;6.10;99.90
10441;DHT22;5268;49.346;9.522;2023-02-28T15:22:28;6.10;99.90
10441;DHT22;5268;49.346;9.522;2023-02-28T15:27:33;6.10;99.90
10441;DHT22;5268;49.346;9.522;2023-02-28T15:32:37;6.10;99.90
10441;DHT22;5268;49.346;9.522;2023-02-28T15:37:46;6.10;99.90
10441;DHT22;5268;49.346;9.522;2023-02-28T15:43:07;6.00;99.90
10441;DHT22;5268;49.346;9.522;2023-02-28T15:48:17;6.10;99.90
10441;DHT22;5268;49.346;9.522;2023-02-28T15:53:25;6.00;99.90
10441;DHT22;5268;49.346;9.522;2023-02-28T15:58:28;6.00;99.90
10441;DHT22;5268;49.346;9.522;2023-02-28T16:03:39;5.90;99.90
10441;DHT22;5268;49.346;9.522;2023-02-28T16:08:44;5.90;99.90
10441;DHT22;5268;49.346;9.522;2023-02-28T16:13:46;5.80;99.90
10441;DHT22;5268;49.346;9.522;2023-02-28T16:18:48;5.70;99.90
10441;DHT22;5268;49.346;9.522;2023-02-28T16:23:52;5.50;99.90
10441;DHT22;5268;49.346;9.522;2023-02-28T16:28:54;5.60;99.90
10441;DHT22;5268;49.346;9.522;2023-02-28T16:33:56;5.50;99.90
10441;DHT22;5268;49.346;9.522;2023-02-28T16:39:00;5.40;99.90
10441;DHT22;5268;49.346;9.522;2023-02-28T16:44:02;5.40;99.90
10441;DHT22;5268;49.346;9.522;2023-02-28T16:49:11;5.30;99.90
10441;DHT22;5268;49.346;9.522;2023-02-28T16:54:15;5.20;99.90
10441;DHT22;5268;49.346;9.522;2023-02-28T16:59:19;5.10;99.90
10441;DHT22;5268;49.346;9.522;2023-02-28T17:04:23;5.00;99.90
10441;DHT22;5268;49.346;9.522;2023-02-28T17:09:27;4.90;99.90
10441;DHT22;5268;49.346;9.522;2023-02-28T17:14:29;4.80;99.90
10441;DHT22;5268;49.346;9.522;2023-02-28T17:19:30;4.70;99.90
10441;DHT22;5268;49.346;9.522;2023-02-28T17:24:35;4.60;99.90
10441;DHT22;5268;49.346;9.522;2023-02-28T17:29:37;4.50;99.90
10441;DHT22;5268;49.346;9.522;2023-02-28T17:34:39;4.40;99.90
10441;DHT22;5268;49.346;9.522;2023-02-28T17:39:42;4.30;99.90
10441;DHT22;5268;49.346;9.522;2023-02-28T17:44:44;4.20;99.90
10441;DHT22;5268;49.346;9.522;2023-02-28T17:49:46;4.00;99.90
10441;DHT22;5268;49.346;9.522;2023-02-28T17:54:50;3.90;99.90
10441;DHT22;5268;49.346;9.522;2023-02-28T17:59:51;3.80;99.90
10441;DHT22;5268;49.346;9.522;2023-02-28T18:04:53;3.60;99.90
10441;DHT22;5268;49.346;9.522;2023-02-28T18:09:57;3.40;99.90
10441;DHT22;5268;49.346;9.522;2023-02-28T18:14:59;3.40;99.90
10441;DHT22;5268;49.346;9.522;2023-02-28T18:20:01;3.40;99.90
10441;DHT22;5268;49.346;9.522;2023-02-28T18:25:08;3.30;99.90
10441;DHT22;5268;49.346;9.522;2023-02-28T18:30:14;3.30;99.90
10441;DHT22;5268;49.346;9.522;2023-02-28T18:35:16;3.20;99.90
10441;DHT22;5268;49.346;9.522;2023-02-28T18:40:36;3.10;99.90
10441;DHT22;5268;49.346;9.522;2023-02-28T18:45:38;3.10;99.90
10441;DHT22;5268;49.346;9.522;2023-02-28T18:50:41;3.00;99.90
10441;DHT22;5268;49.346;9.522;2023-02-28T18:55:44;3.00;99.90
10441;DHT22;5268;49.346;9.522;2023-02-28T19:00:47;2.90;99.90
10441;DHT22;5268;49.346;9.522;2023-02-28T19:05:53;2.80;99.90
10441;DHT22;5268;49.346;9.522;2023-02-28T19:10:56;2.70;99.90
10441;DHT22;5268;49.346;9.522;2023-02-28T19:16:00;2.60;99.90
10441;DHT22;5268;49.346;9.522;2023-02-28T19:21:05;2.60;99.90
10441;DHT22;5268;49.346;9.522;2023-02-28T19:26:11;2.50;99.90
10441;DHT22;5268;49.346;9.522;2023-02-28T19:31:14;2.40;99.90
10441;DHT22;5268;49.346;9.522;2023-02-28T19:36:16;2.40;99.90
10441;DHT22;5268;49.346;9.522;2023-02-28T19:41:19;2.30;99.90
10441;DHT22;5268;49.346;9.522;2023-02-28T19:46:21;2.30;99.90
10441;DHT22;5268;49.346;9.522;2023-02-28T19:51:24;2.20;99.90
10441;DHT22;5268;49.346;9.522;2023-02-28T19:56:28;2.20;99.90
10441;DHT22;5268;49.346;9.522;2023-02-28T20:01:30;2.10;99.90
10441;DHT22;5268;49.346;9.522;2023-02-28T20:06:33;2.10;99.90
10441;DHT22;5268;49.346;9.522;2023-02-28T20:11:37;2.00;99.90
10441;DHT22;5268;49.346;9.522;2023-02-28T20:16:39;1.90;99.90
10441;DHT22;5268;49.346;9.522;2023-02-28T20:21:42;1.80;99.90
10441;DHT22;5268;49.346;9.522;2023-02-28T20:26:46;1.80;99.90
10441;DHT22;5268;49.346;9.522;2023-02-28T20:31:48;1.70;99.90
10441;DHT22;5268;49.346;9.522;2023-02-28T20:36:50;1.60;99.90
10441;DHT22;5268;49.346;9.522;2023-02-28T20:41:54;1.60;99.90
10441;DHT22;5268;49.346;9.522;2023-02-28T20:46:56;1.50;99.90
10441;DHT22;5268;49.346;9.522;2023-02-28T20:51:57;1.40;99.90
10441;DHT22;5268;49.346;9.522;2023-02-28T20:57:01;1.30;99.90
10441;DHT22;5268;49.346;9.522;2023-02-28T21:02:03;1.30;99.90
10441;DHT22;5268;49.346;9.522;2023-02-28T21:07:05;1.30;99.90
10441;DHT22;5268;49.346;9.522;2023-02-28T21:12:08;1.20;99.90
10441;DHT22;5268;49.346;9.522;2023-02-28T21:17:10;1.10;99.90
10441;DHT22;5268;49.346;9.522;2023-02-28T21:22:13;1.10;99.90
10441;DHT22;5268;49.346;9.522;2023-02-28T21:27:16;1.00;99.90
10441;DHT22;5268;49.346;9.522;2023-02-28T21:32:18;1.00;99.90
10441;DHT22;5268;49.346;9.522;2023-02-28T21:37:20;1.00;99.90
10441;DHT22;5268;49.346;9.522;2023-02-28T21:42:24;1.00;99.90
10441;DHT22;5268;49.346;9.522;2023-02-28T21:47:27;1.00;99.90
10441;DHT22;5268;49.346;9.522;2023-02-28T21:52:29;1.00;99.90
10441;DHT22;5268;49.346;9.522;2023-02-28T21:57:33;1.00;99.90
10441;DHT22;5268;49.346;9.522;2023-02-28T22:02:35;0.90;99.90
10441;DHT22;5268;49.346;9.522;2023-02-28T22:07:37;1.00;99.90
10441;DHT22;5268;49.346;9.522;2023-02-28T22:12:43;0.90;99.90
10441;DHT22;5268;49.346;9.522;2023-02-28T22:17:45;0.90;99.90
10441;DHT22;5268;49.346;9.522;2023-02-28T22:22:47;0.90;99.90
10441;DHT22;5268;49.346;9.522;2023-02-28T22:27:50;0.70;99.90
10441;DHT22;5268;49.346;9.522;2023-02-28T22:32:52;0.60;99.90
10441;DHT22;5268;49.346;9.522;2023-02-28T22:37:54;0.50;99.90
10441;DHT22;5268;49.346;9.522;2023-02-28T22:43:00;0.40;99.90
10441;DHT22;5268;49.346;9.522;2023-02-28T22:48:03;0.40;99.90
10441;DHT22;5268;49.346;9.522;2023-02-28T22:53:05;0.40;99.90
